Rakitna Rakitna

Učna pot


Verjetnost toče več informacij Hail probability


Požarna ogroženost več informacij Fire risk


Moja kamera več informacij My webcam


Rakitna DRSI več informacij Rakitna DRSI


Obiščite še:

Template documentacija
in prenos

in še drugo stran



Posebna pozornost v zvezi z vremenskimi dogajanji ni potrebna.    Posebna pozornost v zvezi z vremenskimi dogajanji ni potrebna.

METAR v bližini

   
LJLJ - Ljubljana
Posodobljeno: 20-06-2018 03:30
jasno  
jasno  
   Veter: SZ 1.9 km/h
Veter: SZ 1.9 km/h
Temperatura: 14°C
Točka rosišča: 13°C
Vlažnost: 94%
Zračni tlak: 1023 hPa
Vidljivost: več kot 10 km
Podrobnosti o oblakih: jasno
LJLJ 200130Z 32001KT CAVOK 14/13 Q1023 NOSIG
LJCE - Cerklje ob Krki
Posodobljeno: 20-06-2018 03:30
delno oblačno  
delno oblačno  
   Veter: Brezveterje
Veter: Brezveterje
Temperatura: 16°C
Točka rosišča: 15°C
Vlažnost: 94%
Zračni tlak: 1022 hPa
Oblaki: delno oblačno
Vidljivost: več kot 10 km
Podrobnosti o oblakih: delno oblačno
LJCE 200130Z AUTO 00000KT 9999 NSC 16/15 Q1022
LJMB - Maribor
Posodobljeno: 20-06-2018 03:30
jasno  
jasno  
   Veter: SSZ 5.6 km/h
Veter: SSZ 5.6 km/h
Temperatura: 16°C
Točka rosišča: 13°C
Vlažnost: 83%
Zračni tlak: 1022 hPa
Oblaki: jasno
Vidljivost: več kot 10 km
Podrobnosti o oblakih: jasno
LJMB 200130Z AUTO 34003KT 9999 NCD 16/13 Q1022
LJPZ - Portorož
Posodobljeno: 20-06-2018 03:30
delno oblačno  
delno oblačno  
   Veter: VJV 11.1 km/h
Veter: VJV 11.1 km/h
Temperatura: 17°C
Točka rosišča: 13°C
Vlažnost: 77%
Zračni tlak: 1020 hPa
Oblaki: delno oblačno
Vidljivost: več kot 10 km
Podrobnosti o oblakih: delno oblačno
LJPZ 200130Z AUTO 12006KT 9999 NSC 17/13 Q1020
LDRI - Rijeka, Airport, Croatia
Posodobljeno: 20-06-2018 03:30
jasno  
jasno  
   Veter: Vzhod 20.4 km/h
Veter: Vzhod 20.4 km/h
Temperatura: 26°C
Točka rosišča: 12°C
Vlažnost: 42%
Zračni tlak: 1019 hPa
Vidljivost: več kot 10 km
Podrobnosti o oblakih: jasno
LDRI 200130Z 09011KT 060V130 CAVOK 26/12 Q1019
LOWK - Klagenfurt, Airport, Avstia
Posodobljeno: 20-06-2018 03:50
delno oblačno  
delno oblačno  
   Veter: različen 1.9 km/h
Veter: različen 1.9 km/h
Temperatura: 15°C
Točka rosišča: 12°C
Vlažnost: 82%
Zračni tlak: 1024 hPa
Oblaki: delno oblačno
Vidljivost: več kot 10 km
Podrobnosti o oblakih: delno oblačno
LOWK 200150Z AUTO VRB01KT 9999 NSC 15/12 Q1024

Script developed by  Saratoga-weather.org Adapted for the template by  Weerstation Leuven

Vremenski podatki so objavljeni na:

Weather Underground

Slovenska vremenska mreža

WeatherlinkIP

MapView

Geostik

Oprema, ki se uporablja:

Vremenska postaja
Davis VP2+ ventilirana

Vremenski program
WeatherLink

Vremenski server
Shuttle XS35V4

Ponudnik
Vremensko društvo ZEVS

Davis VP2+ ventilirana

WeatherLink

Shuttle XS35V4

Vremensko društvo ZEVS

Meteorološki podatki vremenske postaje Rakitna so neuradni, meteorološka postaja sama pa ni del državne mreže Agencije Republike Slovenije za okolje (ARSO),
je pa vključena v Vremensko društvo ZEVS. Prikazani podatki so izmerjeni točno, vendar so zgolj informativni in nimajo značaja uradnega podatka.

Podatke meri vremenska postaja "Davis VP2+ ventilirana" od 05.03.2011 dalje.

Opozarjamo, da ne prevzamemo odgovornosti za morebitno nastalo škodo, ki bi nastala zaradi odločitve, sprejete na osnovi teh podatkov!